Overview Statistics Trail Chart Weather Telemetry Raw packets
 

This is the latest recevied weather packets stored in our database for station/object KU4DD. If no packets are shown the sender has not sent any weather packets the latest 10 day(s).

<< 11 12 13 14 15 16 17 >>
Time Temp. Humidity Pressure Rain* Wind** Luminosity Snow
1788056057 22.78° C 96% 1022 hPa 0 mm - 0 W/m² -
1788055120 22.78° C 95% 1022 hPa 0 mm - 0 W/m² -
1788053881 22.78° C 95% 1021.7 hPa 0 mm - 0 W/m² -
1788053252 23.33° C 94% 1021.7 hPa 0 mm - 0 W/m² -
1788052315 23.33° C 94% 1021.3 hPa 0 mm - 0 W/m² -
1788051065 23.89° C 93% 1021.3 hPa 0 mm - 0 W/m² -
1788049508 23.89° C 92% 1021.3 hPa 0 mm - 0 W/m² -
1788048575 24.44° C 90% 1021.3 hPa 0 mm - 0 W/m² -
1788048258 24.44° C 89% 1021 hPa 0 mm - 0 W/m² -
1788046715 25° C 89% 1021 hPa 0 mm - 7 W/m² -
1788046398 25° C 89% 1021 hPa 0 mm - 11 W/m² -
1788046098 25° C 89% 1021 hPa 0 mm - 14 W/m² -
1788044241 25.56° C 88% 1020.7 hPa 0 mm - 51 W/m² -
1788043920 25.56° C 87% 1020.7 hPa 0 mm - 56 W/m² -
1788043289 25.56° C 87% 1020.3 hPa 0 mm - 76 W/m² -
1788042673 26.11° C 86% 1020.3 hPa 0 mm - 91 W/m² -
1788042354 26.11° C 85% 1020.3 hPa 0 mm - 95 W/m² -
1788041409 26.11° C 85% 1020.7 hPa 0 mm - 125 W/m² -
1788040781 26.11° C 84% 1020.7 hPa 0 mm - 128 W/m² -
1788034932 27.22° C 79% 1021 hPa 0 mm - 294 W/m² -
1788032339 27.22° C 81% 1021 hPa 0 mm - 362 W/m² -
1788030509 27.78° C 81% 1021 hPa 0 mm - 329 W/m² -
1788027720 28.33° C 75% 1021.7 hPa 0 mm - 366 W/m² -
1788027403 28.89° C 76% 1021.7 hPa 0 mm - 949 W/m² -
1788024947 28.33° C 80% 1021.7 hPa 0 mm - 550 W/m² -

* Rain latest hour (hover to see other rain measurements)
** Current wind speed in m/s (hover to see current wind gust speed)